Time;durP1;ratioP1;P1;durP2;ratioP2;P2;SDS_P1;SDS_P2;PMS_P1;PMS_P2;Temp;Humidity;BMP_temperature;BMP_pressure;BME280_temperature;BME280_humidity;BME280_pressure;Samples;Min_cycle;Max_cycle;Signal;HPM_P1;HPM_P2
2023/12/19 00:00:56;;;;;;;81.15;41.00;;;;;;;3.13;100.00;100214.09;4898330;29;20546;-85
2023/12/19 00:03:21;;;;;;;82.72;44.95;;;;;;;3.20;100.00;100220.88;4896798;29;20407;-85
2023/12/19 00:05:47;;;;;;;79.82;42.22;;;;;;;3.05;100.00;100187.56;4898498;29;20379;-85
2023/12/19 00:08:12;;;;;;;75.70;41.20;;;;;;;3.42;100.00;100226.75;4912452;29;20029;-85
2023/12/19 00:10:37;;;;;;;86.55;45.15;;;;;;;3.25;100.00;100211.44;4912628;29;20056;-84
2023/12/19 00:13:03;;;;;;;80.00;44.78;;;;;;;3.49;100.00;100247.25;4912516;29;20111;-85
2023/12/19 00:15:28;;;;;;;80.35;45.30;;;;;;;3.11;100.00;100198.66;4898199;29;20043;-85
2023/12/19 00:17:54;;;;;;;67.50;37.05;;;;;;;3.49;100.00;100265.28;4897887;29;20032;-85
2023/12/19 00:20:21;;;;;;;64.40;37.63;;;;;;;3.12;100.00;100210.69;4897697;29;20063;-85
2023/12/19 00:22:46;;;;;;;59.80;33.72;;;;;;;3.48;100.00;100257.59;4898201;29;20112;-85
2023/12/19 00:25:12;;;;;;;56.78;33.45;;;;;;;3.65;100.00;100302.09;4912126;29;20127;-85
2023/12/19 00:27:37;;;;;;;66.82;36.25;;;;;;;3.28;100.00;100228.56;4897510;29;20138;-85
2023/12/19 00:30:03;;;;;;;65.78;37.20;;;;;;;3.61;100.00;100292.66;4897357;29;20034;-84
2023/12/19 00:32:28;;;;;;;72.70;42.72;;;;;;;3.36;100.00;100232.78;4897191;29;20142;-85
2023/12/19 00:34:53;;;;;;;69.47;39.60;;;;;;;3.63;100.00;100275.50;4881121;29;20103;-85
2023/12/19 00:37:19;;;;;;;57.47;33.83;;;;;;;3.65;100.00;100286.63;4897680;29;20108;-85
2023/12/19 00:39:44;;;;;;;62.67;36.75;;;;;;;3.27;100.00;100206.25;4897669;29;20033;-85
2023/12/19 00:42:10;;;;;;;54.08;30.45;;;;;;;3.67;100.00;100263.44;4897665;29;20124;-85
2023/12/19 00:44:38;;;;;;;49.58;28.58;;;;;;;3.66;100.00;100251.41;4898885;29;20029;-85
2023/12/19 00:47:04;;;;;;;50.33;29.00;;;;;;;3.83;100.00;100266.72;4881441;29;20399;-85
2023/12/19 00:49:29;;;;;;;50.13;28.40;;;;;;;3.44;100.00;100196.66;4898559;29;20033;-85
2023/12/19 00:51:55;;;;;;;51.50;30.60;;;;;;;3.83;100.00;100256.41;4898704;29;20157;-85
2023/12/19 00:54:21;;;;;;;81.38;43.92;;;;;;;3.57;100.00;100223.16;4877293;29;20487;-85
2023/12/19 00:56:47;;;;;;;71.68;40.47;;;;;;;3.80;100.00;100253.88;4883679;29;20068;-84
2023/12/19 00:59:12;;;;;;;62.25;35.50;;;;;;;3.62;100.00;100216.25;4884598;29;20041;-85
2023/12/19 01:01:38;;;;;;;62.25;34.10;;;;;;;3.94;100.00;100263.19;4884195;29;20041;-85
2023/12/19 01:04:04;;;;;;;56.75;31.48;;;;;;;3.42;100.00;100165.78;4878173;29;20045;-85
2023/12/19 01:06:31;;;;;;;49.60;29.17;;;;;;;3.87;100.00;100237.47;4875960;29;20574;-84
2023/12/19 01:08:57;;;;;;;55.28;31.42;;;;;;;3.74;100.00;100213.56;4876149;29;20427;-84
2023/12/19 01:11:22;;;;;;;56.40;32.10;;;;;;;3.71;100.00;100214.47;4875830;29;20037;-85
2023/12/19 01:13:47;;;;;;;63.50;33.88;;;;;;;3.87;100.00;100238.34;4875950;29;20045;-85
2023/12/19 01:16:16;;;;;;;58.63;31.00;;;;;;;4.05;100.00;100252.78;4875888;29;20082;-85
2023/12/19 01:18:41;;;;;;;53.33;30.35;;;;;;;3.82;100.00;100216.91;4876023;29;20120;-85
2023/12/19 01:21:07;;;;;;;59.88;33.40;;;;;;;4.02;100.00;100249.38;4875697;29;20120;-84
2023/12/19 01:23:32;;;;;;;56.22;31.13;;;;;;;4.02;100.00;100245.06;4875910;29;20073;-84
2023/12/19 01:25:58;;;;;;;64.72;35.50;;;;;;;3.72;100.00;100184.41;4891823;29;20052;-85
2023/12/19 01:28:23;;;;;;;87.43;44.05;;;;;;;3.94;100.00;100229.69;4892128;29;20599;-85
2023/12/19 01:30:50;;;;;;;85.93;44.97;;;;;;;3.91;100.00;100214.25;4897335;29;20032;-85
2023/12/19 01:33:15;;;;;;;80.85;44.58;;;;;;;3.97;100.00;100206.47;4879952;29;20478;-85
2023/12/19 01:35:41;;;;;;;71.25;38.72;;;;;;;4.05;100.00;100210.69;4895806;29;20033;-85
2023/12/19 01:38:06;;;;;;;68.70;37.72;;;;;;;4.08;100.00;100210.63;4895363;29;20260;-85
2023/12/19 01:40:31;;;;;;;68.20;40.05;;;;;;;4.21;100.00;100228.53;4896970;29;20029;-85
2023/12/19 01:43:01;;;;;;;61.70;35.25;;;;;;;4.29;100.00;100218.13;4896965;29;20029;-85
2023/12/19 01:45:28;;;;;;;58.85;35.17;;;;;;;4.17;100.00;100183.03;4881710;29;20390;-85
2023/12/19 01:47:53;;;;;;;62.13;38.63;;;;;;;4.16;100.00;100186.47;4883625;29;20517;-85
2023/12/19 01:50:20;;;;;;;53.33;31.02;;;;;;;4.17;100.00;100183.03;4900255;29;20029;-85
2023/12/19 01:52:50;;;;;;;50.45;27.50;;;;;;;4.35;100.00;100218.06;4900412;29;20072;-85
2023/12/19 01:55:17;;;;;;;47.55;27.75;;;;;;;4.14;100.00;100164.19;4902852;29;20494;-85
2023/12/19 01:57:44;;;;;;;51.10;29.52;;;;;;;4.02;100.00;100136.81;4919247;29;20032;-85
2023/12/19 02:00:12;;;;;;;54.95;31.05;;;;;;;4.29;100.00;100212.97;4937904;29;20032;-84
2023/12/19 02:02:37;;;;;;;60.58;32.97;;;;;;;4.34;100.00;100221.50;4936954;29;20481;-85
2023/12/19 02:05:03;;;;;;;79.45;46.28;;;;;;;4.04;100.00;100168.56;4921090;29;20098;-85
2023/12/19 02:07:29;;;;;;;59.83;31.90;;;;;;;4.36;100.00;100200.84;4920856;29;20031;-85
2023/12/19 02:09:55;;;;;;;53.58;28.60;;;;;;;3.98;100.00;100148.03;4920979;29;20470;-85
2023/12/19 02:12:21;;;;;;;52.05;28.85;;;;;;;4.36;100.00;100227.50;4937787;29;20071;-85
2023/12/19 02:14:50;;;;;;;47.13;27.15;;;;;;;4.13;100.00;100171.06;4920920;29;20023;-85
2023/12/19 02:17:16;;;;;;;49.03;27.95;;;;;;;4.35;100.00;100204.31;4920360;29;20032;-85
2023/12/19 02:19:48;;;;;;;56.70;30.88;;;;;;;4.31;100.00;100192.34;4937964;29;20026;-85
2023/12/19 02:22:15;;;;;;;62.20;32.40;;;;;;;4.17;100.00;100192.47;4937569;29;20062;-85
2023/12/19 02:24:41;;;;;;;59.28;30.55;;;;;;;3.94;100.00;100157.53;4937726;29;20027;-85
2023/12/19 02:27:08;;;;;;;48.92;29.35;;;;;;;4.03;100.00;100192.66;4937675;29;20102;-84
2023/12/19 02:29:35;;;;;;;52.88;27.45;;;;;;;3.84;100.00;100155.94;4937713;29;20043;-85
2023/12/19 02:32:00;;;;;;;45.95;25.27;;;;;;;3.94;100.00;100157.53;4936349;29;20386;-85
2023/12/19 02:34:26;;;;;;;51.72;29.23;;;;;;;4.00;100.00;100154.88;4920273;29;20042;-85
2023/12/19 02:36:51;;;;;;;55.80;29.35;;;;;;;4.14;100.00;100177.06;4937527;29;20032;-85
2023/12/19 02:39:17;;;;;;;50.95;28.20;;;;;;;4.30;100.00;100196.63;4896742;29;20048;-85
2023/12/19 02:41:42;;;;;;;52.90;28.98;;;;;;;4.12;100.00;100163.31;4881337;29;20047;-85
2023/12/19 02:44:08;;;;;;;52.15;29.52;;;;;;;4.12;100.00;100166.75;4881208;29;20036;-85
2023/12/19 02:46:34;;;;;;;60.75;34.33;;;;;;;4.36;100.00;100178.50;4896747;29;20426;-85
2023/12/19 02:48:59;;;;;;;63.15;39.25;;;;;;;4.20;100.00;100152.03;4896925;29;20048;-85
2023/12/19 02:51:26;;;;;;;60.90;38.58;;;;;;;4.11;100.00;100123.81;4896608;29;20181;-85
2023/12/19 02:53:53;;;;;;;54.20;31.73;;;;;;;4.29;100.00;100145.06;4896815;29;20500;-85
2023/12/19 02:56:18;;;;;;;52.90;28.60;;;;;;;4.20;100.00;100128.00;4869445;29;20053;-85
2023/12/19 02:58:44;;;;;;;40.85;23.48;;;;;;;4.36;99.65;100151.84;4862574;29;20044;-85
2023/12/19 03:01:10;;;;;;;36.65;22.10;;;;;;;4.17;99.04;100113.44;4862476;29;20402;-85
2023/12/19 03:03:36;;;;;;;35.78;21.10;;;;;;;4.02;99.26;100072.38;4877888;29;20442;-85
2023/12/19 03:06:02;;;;;;;40.90;22.58;;;;;;;4.34;99.09;100146.72;4877955;29;20136;-85
2023/12/19 03:08:29;;;;;;;38.78;22.67;;;;;;;4.19;99.54;100129.72;4862164;29;20044;-85
2023/12/19 03:10:54;;;;;;;42.60;24.40;;;;;;;4.04;99.66;100095.53;4908339;29;20052;-85
2023/12/19 03:13:19;;;;;;;37.17;21.48;;;;;;;4.37;98.66;100149.25;4917741;29;20079;-85
2023/12/19 03:15:45;;;;;;;34.88;21.80;;;;;;;4.48;98.26;100155.13;4900888;29;20036;-85
2023/12/19 03:24:56;;;;;;;34.78;20.55;;;;;;;4.39;98.94;100164.72;4917862;29;20545;-85
2023/12/19 03:34:31;;;;;;;32.15;19.20;;;;;;;3.92;98.90;100081.97;4917433;29;20429;-84
2023/12/19 03:40:19;;;;;;;31.58;19.00;;;;;;;4.09;97.99;100115.25;4917401;29;20100;-85
2023/12/19 03:42:45;;;;;;;33.72;18.13;;;;;;;4.20;97.43;100152.03;4917457;29;20115;-85
2023/12/19 03:45:11;;;;;;;33.85;19.08;;;;;;;4.15;97.62;100156.41;4917413;29;20066;-85
2023/12/19 03:47:37;;;;;;;32.22;19.38;;;;;;;4.12;97.39;100153.00;4915792;29;20127;-85
2023/12/19 03:50:04;;;;;;;41.75;25.58;;;;;;;3.95;97.32;100127.44;4917252;29;20028;-85
2023/12/19 03:52:30;;;;;;;34.85;18.95;;;;;;;3.99;96.78;100154.88;4916935;29;20036;-85
2023/12/19 03:54:55;;;;;;;29.55;17.52;;;;;;;4.05;96.38;100174.59;4916923;29;20111;-85
2023/12/19 03:57:20;;;;;;;27.45;17.08;;;;;;;3.87;96.20;100153.28;4916464;29;20398;-85
2023/12/19 03:59:45;;;;;;;30.45;17.95;;;;;;;3.87;96.17;100145.56;4917032;29;20036;-85
2023/12/19 04:02:11;;;;;;;32.10;19.05;;;;;;;3.90;96.48;100166.16;4917298;29;20111;-85
2023/12/19 04:04:37;;;;;;;29.92;17.67;;;;;;;3.70;96.43;100126.88;4933843;29;20123;-84
2023/12/19 04:07:02;;;;;;;29.85;18.25;;;;;;;3.71;95.53;100131.19;4935477;29;20027;-85
2023/12/19 04:09:28;;;;;;;28.95;16.60;;;;;;;3.65;94.97;100121.78;4918615;29;20028;-85
2023/12/19 04:11:53;;;;;;;25.55;16.02;;;;;;;3.71;94.27;100137.19;4935529;29;20501;-85
2023/12/19 04:14:19;;;;;;;26.42;16.13;;;;;;;3.87;94.19;100155.03;4918663;29;20134;-85
2023/12/19 04:16:45;;;;;;;27.67;15.85;;;;;;;3.84;94.24;100155.94;4935981;29;20034;-85
2023/12/19 04:19:10;;;;;;;30.08;17.15;;;;;;;3.71;94.83;100126.03;4918674;29;20049;-85
2023/12/19 04:21:36;;;;;;;30.90;18.30;;;;;;;3.63;95.08;100108.06;4936144;29;20087;-85
2023/12/19 04:24:04;;;;;;;28.35;16.33;;;;;;;3.55;95.49;100081.53;4918583;29;20031;-85
2023/12/19 04:26:29;;;;;;;34.08;20.95;;;;;;;3.27;95.69;100039.78;4935737;29;20426;-85
2023/12/19 04:28:54;;;;;;;35.17;20.52;;;;;;;3.75;96.29;100107.09;4936114;29;20036;-85
2023/12/19 04:31:20;;;;;;;32.90;20.75;;;;;;;3.66;97.07;100086.56;4935577;29;20032;-85
2023/12/19 04:33:46;;;;;;;32.10;20.10;;;;;;;3.74;97.47;100095.06;4935735;29;20071;-85
2023/12/19 04:36:11;;;;;;;30.13;17.70;;;;;;;3.68;96.63;100082.25;4935548;29;20056;-85
2023/12/19 04:38:38;;;;;;;27.98;15.82;;;;;;;3.94;95.49;100136.91;4935332;29;20110;-85
2023/12/19 04:41:03;;;;;;;29.38;16.75;;;;;;;3.87;95.81;100103.47;4913643;29;20048;-85
2023/12/19 04:43:29;;;;;;;27.75;16.45;;;;;;;3.98;95.60;100122.25;4913825;29;20043;-85
2023/12/19 04:45:54;;;;;;;25.50;16.17;;;;;;;4.07;95.63;100126.44;4913842;29;20044;-85
2023/12/19 04:48:20;;;;;;;24.40;14.82;;;;;;;3.94;95.32;100092.25;4913590;29;20091;-85
2023/12/19 04:50:45;;;;;;;23.25;14.80;;;;;;;4.15;94.97;100112.59;4898006;29;20496;-85
2023/12/19 04:53:10;;;;;;;25.17;15.10;;;;;;;4.15;94.35;100093.69;4913762;29;20028;-85
2023/12/19 04:55:35;;;;;;;23.23;13.32;;;;;;;4.18;94.11;100091.94;4913155;29;20045;-85
2023/12/19 04:58:01;;;;;;;18.42;11.10;;;;;;;4.32;93.00;100107.19;4913819;29;20115;-85
2023/12/19 05:00:27;;;;;;;16.25;11.02;;;;;;;4.18;93.00;100080.78;4913538;29;20115;-85
2023/12/19 05:02:53;;;;;;;19.98;11.85;;;;;;;3.93;90.94;100034.69;4913646;29;20130;-85
2023/12/19 05:05:19;;;;;;;16.83;10.77;;;;;;;4.27;90.91;100098.69;4913497;29;20548;-85
2023/12/19 05:07:45;;;;;;;15.10;9.32;;;;;;;4.39;90.27;100114.00;4913855;29;20544;-85
2023/12/19 05:10:10;;;;;;;16.83;9.82;;;;;;;4.27;89.78;100078.06;4897976;29;20075;-85
2023/12/19 05:12:37;;;;;;;12.75;8.93;;;;;;;4.16;90.16;100064.44;4928882;29;20040;-85
2023/12/19 05:15:04;;;;;;;14.25;8.93;;;;;;;4.28;90.29;100091.78;4935216;29;20035;-85
2023/12/19 05:17:29;;;;;;;11.82;7.55;;;;;;;4.09;89.94;100062.81;4917969;29;20389;-85
2023/12/19 05:19:55;;;;;;;11.73;7.28;;;;;;;4.33;88.85;100092.56;4920922;29;20032;-85
2023/12/19 05:22:20;;;;;;;13.35;8.07;;;;;;;4.31;88.76;100091.75;4938834;29;20028;-85
2023/12/19 05:24:45;;;;;;;9.18;5.65;;;;;;;3.97;88.33;100031.22;4938872;29;20032;-85
2023/12/19 05:27:11;;;;;;;9.50;6.05;;;;;;;4.15;88.22;100062.75;4921881;29;20028;-85
2023/12/19 05:29:36;;;;;;;10.38;6.07;;;;;;;4.32;87.83;100096.88;4938671;29;20028;-85
2023/12/19 05:32:02;;;;;;;11.73;6.38;;;;;;;4.22;87.56;100091.00;4938768;29;20377;-85
2023/12/19 05:34:27;;;;;;;10.05;6.03;;;;;;;4.33;86.09;100105.47;4938420;29;20086;-84
2023/12/19 05:36:52;;;;;;;13.00;6.80;;;;;;;4.32;85.11;100111.50;4938718;29;20032;-84
2023/12/19 05:39:18;;;;;;;10.23;6.32;;;;;;;4.12;85.22;100070.53;4938655;29;20067;-85
2023/12/19 05:41:43;;;;;;;11.30;6.57;;;;;;;4.16;85.76;100074.75;4938044;29;20440;-85
2023/12/19 05:44:11;;;;;;;13.95;6.90;;;;;;;4.42;85.80;100128.56;4938458;29;20363;-85
2023/12/19 05:46:37;;;;;;;11.48;6.50;;;;;;;4.37;85.55;100107.13;4938295;29;20103;-85
2023/12/19 05:49:02;;;;;;;10.05;6.00;;;;;;;4.33;85.86;100098.59;4938543;29;20112;-85
2023/12/19 05:51:28;;;;;;;11.13;6.78;;;;;;;4.16;85.25;100062.72;4921114;29;20024;-85
2023/12/19 05:53:53;;;;;;;9.05;5.85;;;;;;;4.38;85.08;100106.25;4938581;29;20093;-85
2023/12/19 05:56:18;;;;;;;10.50;6.15;;;;;;;4.31;84.96;100081.44;4938148;29;20617;-85
2023/12/19 05:58:46;;;;;;;10.45;6.45;;;;;;;4.24;84.42;100072.94;4938076;29;20019;-85
2023/12/19 06:01:12;;;;;;;11.88;5.88;;;;;;;4.14;83.94;100046.44;4921120;29;20039;-85
2023/12/19 06:03:37;;;;;;;7.40;4.88;;;;;;;4.48;83.54;100089.78;4920741;29;20027;-86
2023/12/19 06:06:03;;;;;;;7.28;4.50;;;;;;;4.30;82.97;100048.78;4938186;29;20493;-85
2023/12/19 06:08:29;;;;;;;7.13;4.47;;;;;;;4.38;83.53;100057.25;4938466;29;20027;-86
2023/12/19 06:10:54;;;;;;;7.32;4.90;;;;;;;4.57;83.90;100078.47;4938369;29;20054;-85
2023/12/19 06:13:19;;;;;;;9.73;5.30;;;;;;;4.63;82.17;100101.59;4897687;29;20040;-85
2023/12/19 06:15:45;;;;;;;8.63;4.95;;;;;;;4.62;82.18;100089.56;4881516;29;20037;-85
2023/12/19 06:18:10;;;;;;;8.43;5.22;;;;;;;4.57;82.12;100074.16;4897472;29;20503;-85
2023/12/19 06:20:36;;;;;;;9.77;5.70;;;;;;;4.64;81.49;100083.53;4897155;29;20033;-85
2023/12/19 06:23:01;;;;;;;7.85;5.40;;;;;;;4.65;81.27;100074.91;4881665;29;20071;-85
2023/12/19 06:25:26;;;;;;;8.60;4.70;;;;;;;4.77;80.99;100099.66;4897033;29;20071;-85
2023/12/19 06:27:52;;;;;;;7.45;4.53;;;;;;;4.38;81.19;100027.19;4897095;29;20048;-85
2023/12/19 06:30:17;;;;;;;6.82;5.20;;;;;;;4.71;82.43;100079.97;4896532;29;20047;-85
2023/12/19 06:32:43;;;;;;;9.45;5.00;;;;;;;4.61;83.00;100059.50;4896666;29;20052;-85
2023/12/19 06:35:09;;;;;;;7.30;4.60;;;;;;;4.68;82.35;100084.34;4881311;29;20155;-85
2023/12/19 06:37:34;;;;;;;9.50;4.57;;;;;;;4.63;82.57;100068.06;4896980;29;20028;-85
2023/12/19 06:40:01;;;;;;;7.65;4.88;;;;;;;4.69;83.11;100079.16;4897022;29;20136;-85
2023/12/19 06:42:26;;;;;;;6.85;4.60;;;;;;;4.71;81.34;100071.38;4897055;29;20029;-85
2023/12/19 06:44:51;;;;;;;6.90;4.75;;;;;;;4.67;79.16;100052.50;4925745;29;20044;-84
2023/12/19 06:47:16;;;;;;;6.57;4.20;;;;;;;4.66;78.42;100049.94;4920174;29;20051;-85
2023/12/19 06:49:45;;;;;;;7.90;4.57;;;;;;;4.55;78.04;100044.97;4937089;29;20083;-85
2023/12/19 06:52:10;;;;;;;9.88;4.10;;;;;;;4.66;78.57;100068.00;4920242;29;20059;-85
2023/12/19 06:54:38;;;;;;;6.60;4.28;;;;;;;4.57;79.39;100055.25;4937017;29;20090;-84
2023/12/19 06:57:04;;;;;;;10.57;5.15;;;;;;;4.39;79.31;100039.19;4937289;29;20079;-85
2023/12/19 06:59:32;;;;;;;7.72;5.18;;;;;;;4.56;79.49;100085.38;4937043;29;20055;-85
2023/12/19 07:01:57;;;;;;;10.35;5.32;;;;;;;4.60;78.98;100087.03;4920335;29;20027;-85
2023/12/19 07:04:22;;;;;;;7.88;5.38;;;;;;;4.54;78.96;100081.09;4920351;29;20058;-85
2023/12/19 07:06:48;;;;;;;10.02;6.25;;;;;;;4.46;78.75;100064.00;4919311;29;20032;-84
2023/12/19 07:09:14;;;;;;;9.35;5.80;;;;;;;4.36;79.02;100035.81;4919757;29;20027;-85
2023/12/19 07:11:40;;;;;;;11.30;6.28;;;;;;;4.54;79.52;100063.03;4939379;29;20028;-85
2023/12/19 07:14:06;;;;;;;25.13;12.05;;;;;;;4.46;79.24;100034.78;4939434;29;20035;-85
2023/12/19 07:16:34;;;;;;;27.90;13.43;;;;;;;4.56;79.55;100051.00;4904055;29;20058;-85
2023/12/19 07:19:00;;;;;;;76.55;34.58;;;;;;;4.71;79.86;100061.91;4937183;29;20027;-85
2023/12/19 07:21:31;;;;;;;140.68;32.47;;;;;;;4.59;80.18;100041.44;4936689;29;20507;-85
2023/12/19 07:23:58;;;;;;;75.82;24.00;;;;;;;4.78;80.71;100065.25;4919477;29;20122;-84
2023/12/19 07:26:26;;;;;;;29.50;12.20;;;;;;;4.55;80.41;100026.94;4919482;29;20119;-85
2023/12/19 07:28:53;;;;;;;22.75;9.18;;;;;;;4.60;79.44;100027.69;4919392;29;20023;-85
2023/12/19 07:31:24;;;;;;;13.98;7.57;;;;;;;4.94;79.34;100076.16;4936589;29;20286;-85
2023/12/19 07:34:00;;;;;;;11.70;7.95;;;;;;;5.05;79.16;100075.97;4895645;29;20218;-85
2023/12/19 07:36:26;;;;;;;20.95;8.65;;;;;;;5.06;79.33;100065.63;4896093;29;20490;-84
2023/12/19 07:38:52;;;;;;;15.73;7.82;;;;;;;5.09;80.17;100054.38;4895548;29;20037;-85
2023/12/19 07:41:18;;;;;;;17.17;8.55;;;;;;;5.06;80.18;100033.81;4895761;29;20158;-85
2023/12/19 07:43:44;;;;;;;29.13;12.02;;;;;;;5.30;79.83;100071.22;4894826;29;20120;-85
2023/12/19 07:46:11;;;;;;;23.48;11.13;;;;;;;5.06;78.94;100024.31;4895570;29;20576;-85
2023/12/19 07:48:36;;;;;;;15.90;8.70;;;;;;;5.30;78.18;100048.81;4876885;29;20077;-85
2023/12/19 07:51:02;;;;;;;12.32;6.63;;;;;;;5.44;78.19;100056.34;4877341;29;20063;-85
2023/12/19 07:53:32;;;;;;;58.13;13.07;;;;;;;5.49;77.78;100050.19;4877193;29;20077;-86
2023/12/19 07:56:00;;;;;;;50.88;12.70;;;;;;;5.55;77.30;100045.78;4885783;29;20088;-85
2023/12/19 07:58:26;;;;;;;39.80;11.18;;;;;;;5.63;77.31;100051.66;4895762;29;20083;-87
2023/12/19 08:00:52;;;;;;;38.45;11.52;;;;;;;5.76;78.51;100060.84;4895622;29;20040;-87
2023/12/19 08:03:18;;;;;;;36.58;11.05;;;;;;;5.80;78.62;100048.72;4874170;29;20561;-87
2023/12/19 08:05:50;;;;;;;29.67;12.98;;;;;;;5.60;78.55;100023.28;4872619;29;20123;-84
2023/12/19 08:08:19;;;;;;;51.50;21.77;;;;;;;5.82;78.85;100034.91;4876935;29;20045;-85
2023/12/19 08:10:45;;;;;;;56.17;23.75;;;;;;;5.67;78.10;100010.22;4876581;29;20048;-86
2023/12/19 08:13:11;;;;;;;40.75;18.67;;;;;;;5.66;78.35;100005.94;4876844;29;20128;-83
2023/12/19 08:15:36;;;;;;;30.55;15.20;;;;;;;5.78;78.60;100016.91;4876574;29;20112;-83
2023/12/19 08:18:02;;;;;;;32.50;17.00;;;;;;;5.89;78.46;100040.75;4876851;29;20037;-83
2023/12/19 08:20:27;;;;;;;29.38;17.35;;;;;;;5.59;78.37;99985.41;4876605;29;20474;-83
2023/12/19 08:22:52;;;;;;;27.55;15.85;;;;;;;5.71;78.90;100006.69;4876538;29;20037;-83
2023/12/19 08:25:18;;;;;;;27.70;15.65;;;;;;;5.86;78.57;100036.53;4876537;29;20229;-83
2023/12/19 08:27:44;;;;;;;58.85;18.25;;;;;;;5.78;78.85;100024.66;4876651;29;20044;-83
2023/12/19 08:30:10;;;;;;;57.08;18.02;;;;;;;5.67;79.07;99999.03;4876550;29;20033;-83
2023/12/19 08:32:35;;;;;;;29.05;15.65;;;;;;;5.88;78.65;100020.97;4876183;29;20495;-83
2023/12/19 08:35:01;;;;;;;33.88;17.05;;;;;;;5.70;78.40;99983.47;4906898;29;20046;-83
2023/12/19 08:37:26;;;;;;;46.00;27.30;;;;;;;5.76;78.27;99975.56;4935234;29;20452;-83
2023/12/19 08:39:56;;;;;;;63.13;37.65;;;;;;;5.75;78.20;99958.38;4935492;29;20086;-83
2023/12/19 08:42:21;;;;;;;62.88;37.13;;;;;;;5.69;78.37;99938.69;4918352;29;20031;-83
2023/12/19 08:44:47;;;;;;;45.83;28.13;;;;;;;5.91;77.86;99954.56;4934756;29;20473;-83
2023/12/19 08:47:13;;;;;;;42.90;22.25;;;;;;;6.05;77.32;99974.09;4935147;29;20028;-83
2023/12/19 08:49:43;;;;;;;39.47;19.92;;;;;;;6.03;76.83;99953.47;4918031;29;20091;-83
2023/12/19 08:52:08;;;;;;;46.15;24.85;;;;;;;6.03;76.46;99947.44;4918084;29;20024;-84
2023/12/19 08:54:34;;;;;;;35.75;25.17;;;;;;;5.89;76.39;99917.53;4917518;29;20035;-83
2023/12/19 08:56:59;;;;;;;22.30;16.15;;;;;;;5.83;77.00;99896.16;4918027;29;20052;-83
2023/12/19 08:59:25;;;;;;;19.83;15.13;;;;;;;6.06;77.07;99931.84;4916125;29;20028;-83
2023/12/19 09:01:50;;;;;;;18.67;12.38;;;;;;;5.81;77.08;99879.81;4915935;29;20147;-83
2023/12/19 09:04:15;;;;;;;69.22;19.25;;;;;;;6.03;77.23;99917.25;4914451;29;20028;-82
2023/12/19 09:06:40;;;;;;;26.83;14.27;;;;;;;6.16;77.54;99941.94;4898573;29;20459;-83
2023/12/19 09:09:11;;;;;;;30.33;18.80;;;;;;;5.91;76.75;99886.50;4916146;29;20111;-83
2023/12/19 09:11:37;;;;;;;63.10;31.63;;;;;;;6.25;76.82;99943.44;4916101;29;20028;-84
2023/12/19 09:14:02;;;;;;;102.45;48.80;;;;;;;6.00;77.45;99899.22;4915563;29;20046;-84
2023/12/19 09:16:28;;;;;;;80.97;39.80;;;;;;;6.22;77.76;99928.00;4916263;29;20075;-85
2023/12/19 09:18:54;;;;;;;81.68;39.78;;;;;;;6.21;77.84;99934.91;4915366;29;20032;-83
2023/12/19 09:21:19;;;;;;;44.65;23.98;;;;;;;6.24;78.59;99927.09;4915717;29;20033;-81
2023/12/19 09:23:45;;;;;;;187.30;65.50;;;;;;;6.31;78.92;99943.28;4898248;29;20092;-84
2023/12/19 09:26:10;;;;;;;58.33;27.30;;;;;;;6.06;79.72;99888.72;4898545;29;20032;-85
2023/12/19 09:28:35;;;;;;;32.42;18.73;;;;;;;6.32;79.56;99932.06;4916228;29;20032;-86
2023/12/19 09:31:01;;;;;;;75.00;23.30;;;;;;;6.30;80.22;99918.31;4914986;29;20490;-83
2023/12/19 09:33:28;;;;;;;42.63;21.80;;;;;;;6.21;79.98;99893.53;4914803;29;20125;-83
2023/12/19 09:35:53;;;;;;;32.28;22.02;;;;;;;6.38;80.01;99903.44;4915352;29;20044;-83
2023/12/19 09:38:18;;;;;;;26.13;16.77;;;;;;;6.23;79.54;99873.63;4914673;29;20087;-82
2023/12/19 09:40:44;;;;;;;261.35;47.67;;;;;;;6.33;79.71;99882.03;4915204;29;20028;-82
2023/12/19 09:43:09;;;;;;;59.85;20.40;;;;;;;6.56;79.64;99906.44;4912614;29;20061;-82
2023/12/19 09:45:35;;;;;;;28.02;16.58;;;;;;;6.45;79.51;99867.94;4915479;29;20036;-82
2023/12/19 09:48:02;;;;;;;23.90;15.23;;;;;;;6.62;79.83;99893.38;4915063;29;20047;-82
2023/12/19 09:50:28;;;;;;;24.30;15.43;;;;;;;6.64;80.49;99876.88;4898442;29;20103;-82
2023/12/19 09:52:57;;;;;;;22.50;14.25;;;;;;;6.89;80.37;99895.19;4914909;29;20489;-82
2023/12/19 09:55:26;;;;;;;36.03;18.45;;;;;;;6.94;80.55;99882.13;4901554;29;20084;-82
2023/12/19 09:57:54;;;;;;;30.35;19.63;;;;;;;7.04;80.65;99880.97;4932724;29;20182;-82
2023/12/19 10:00:21;;;;;;;28.55;17.42;;;;;;;7.14;80.29;99876.38;4933432;29;20035;-82
2023/12/19 10:02:46;;;;;;;21.88;13.85;;;;;;;7.25;80.16;99875.19;4932620;29;20461;-82
2023/12/19 10:05:12;;;;;;;18.40;10.98;;;;;;;7.40;80.14;99892.00;4917050;29;20079;-82
2023/12/19 10:07:38;;;;;;;32.53;21.33;;;;;;;7.40;80.23;99855.72;4937817;29;20032;-82
2023/12/19 10:10:06;;;;;;;25.85;16.20;;;;;;;7.52;80.30;99867.47;4937989;29;20085;-83
2023/12/19 10:12:32;;;;;;;20.52;15.20;;;;;;;7.50;80.52;99835.56;4920765;29;20158;-82
2023/12/19 10:15:13;;;;;;;22.45;14.02;;;;;;;7.54;80.15;99813.81;4937461;29;20122;-82
2023/12/19 10:17:38;;;;;;;25.17;17.42;;;;;;;7.84;79.69;99826.72;4920715;29;20386;-83
2023/12/19 10:20:10;;;;;;;21.05;11.63;;;;;;;7.98;79.58;99825.34;4938039;29;20147;-82
2023/12/19 10:22:36;;;;;;;14.52;9.35;;;;;;;8.15;78.65;99832.59;4937252;29;20043;-83
2023/12/19 10:25:02;;;;;;;35.10;16.80;;;;;;;7.84;78.63;99774.88;4919109;29;20023;-82
2023/12/19 10:27:27;;;;;;;99.57;25.58;;;;;;;7.89;78.58;99775.56;4919607;29;20034;-82
2023/12/19 10:29:53;;;;;;;56.95;26.45;;;;;;;8.15;78.79;99814.41;4937279;29;20405;-82
2023/12/19 10:32:21;;;;;;;24.33;14.85;;;;;;;8.11;79.13;99793.81;4937602;29;20060;-82
2023/12/19 10:34:55;;;;;;;58.83;21.40;;;;;;;8.14;78.99;99791.13;4937443;29;20036;-81
2023/12/19 10:37:21;;;;;;;26.60;13.65;;;;;;;8.28;79.05;99808.81;4937283;29;20385;-82
2023/12/19 10:39:47;;;;;;;11.80;8.52;;;;;;;8.28;78.60;99788.91;4937273;29;20039;-82
2023/12/19 10:42:13;;;;;;;16.33;10.95;;;;;;;8.19;78.15;99768.47;4937457;29;20119;-82
2023/12/19 10:44:41;;;;;;;13.75;8.52;;;;;;;8.37;76.85;99785.16;4937360;29;20455;-82
2023/12/19 10:47:08;;;;;;;59.53;15.13;;;;;;;8.32;75.43;99768.88;4937401;29;20031;-82
2023/12/19 10:49:37;;;;;;;18.92;14.35;;;;;;;8.44;75.21;99784.91;4937481;29;20054;-82
2023/12/19 10:52:05;;;;;;;18.95;15.23;;;;;;;8.33;74.89;99765.38;4937360;29;20031;-82
2023/12/19 10:54:33;;;;;;;17.25;12.73;;;;;;;8.38;74.50;99766.94;4937124;29;20039;-82
2023/12/19 10:57:24;;;;;;;11.88;9.27;;;;;;;8.48;74.46;99781.28;4936545;29;20110;-82
2023/12/19 11:00:11;;;;;;;16.13;12.05;;;;;;;8.41;74.64;99763.38;4877890;29;20042;-82
2023/12/19 11:02:43;;;;;;;17.38;13.18;;;;;;;8.48;74.83;99764.88;4878111;29;20033;-83
2023/12/19 11:05:28;;;;;;;26.70;19.25;;;;;;;8.47;75.23;99763.19;4878003;29;20041;-82
2023/12/19 11:07:58;;;;;;;18.35;12.90;;;;;;;8.14;75.50;99702.94;4877579;29;20044;-83
2023/12/19 11:10:24;;;;;;;36.95;24.25;;;;;;;8.23;75.56;99707.78;4878138;29;20037;-82
2023/12/19 11:12:51;;;;;;;44.42;33.40;;;;;;;8.27;75.56;99716.31;4877650;29;20029;-82
2023/12/19 11:15:17;;;;;;;31.83;23.50;;;;;;;8.23;75.56;99695.66;4877795;29;20052;-82
2023/12/19 11:17:51;;;;;;;44.10;33.42;;;;;;;8.13;75.77;99668.34;4877347;29;20045;-82
2023/12/19 11:20:24;;;;;;;44.15;33.60;;;;;;;8.23;75.85;99679.25;4877767;29;20032;-83
2023/12/19 11:23:25;;;;;;;78.95;55.63;;;;;;;8.53;76.04;99720.56;4877672;29;20037;-82
2023/12/19 11:26:08;;;;;;;82.97;56.83;;;;;;;8.43;76.05;99694.13;4877269;29;20135;-83
2023/12/19 11:28:37;;;;;;;76.15;54.08;;;;;;;8.43;76.48;99701.91;4877598;29;20052;-83
2023/12/19 11:31:03;;;;;;;70.93;46.65;;;;;;;8.47;76.48;99701.72;4877303;29;20048;-82
2023/12/19 11:33:29;;;;;;;64.28;45.47;;;;;;;8.53;77.00;99705.00;4877646;29;20041;-82